sensor_id;sensor_type;location;lat;lon;timestamp;temperature;humidity
39427;DHT22;25938;48.470;1.486;2022-10-16T00:01:37;19.40;74.60
39427;DHT22;25938;48.470;1.486;2022-10-16T00:04:03;19.40;74.60
39427;DHT22;25938;48.470;1.486;2022-10-16T00:06:30;19.40;74.60
39427;DHT22;25938;48.470;1.486;2022-10-16T00:08:56;19.40;74.60
39427;DHT22;25938;48.470;1.486;2022-10-16T00:11:24;19.40;74.70
39427;DHT22;25938;48.470;1.486;2022-10-16T00:13:52;19.40;74.70
39427;DHT22;25938;48.470;1.486;2022-10-16T00:16:19;19.40;74.70
39427;DHT22;25938;48.470;1.486;2022-10-16T00:18:45;19.40;74.70
39427;DHT22;25938;48.470;1.486;2022-10-16T00:21:13;19.40;74.60
39427;DHT22;25938;48.470;1.486;2022-10-16T00:23:39;19.40;74.70
39427;DHT22;25938;48.470;1.486;2022-10-16T00:26:12;19.40;74.70
39427;DHT22;25938;48.470;1.486;2022-10-16T00:28:38;19.30;74.60
39427;DHT22;25938;48.470;1.486;2022-10-16T00:31:06;19.30;74.60
39427;DHT22;25938;48.470;1.486;2022-10-16T00:33:32;19.40;74.70
39427;DHT22;25938;48.470;1.486;2022-10-16T00:35:59;19.40;74.70
39427;DHT22;25938;48.470;1.486;2022-10-16T00:38:25;19.40;74.80
39427;DHT22;25938;48.470;1.486;2022-10-16T00:40:50;19.40;74.80
39427;DHT22;25938;48.470;1.486;2022-10-16T00:46:26;19.40;74.80
39427;DHT22;25938;48.470;1.486;2022-10-16T00:51:30;19.40;74.70
39427;DHT22;25938;48.470;1.486;2022-10-16T00:53:56;19.30;74.70
39427;DHT22;25938;48.470;1.486;2022-10-16T00:56:22;19.30;74.70
39427;DHT22;25938;48.470;1.486;2022-10-16T00:58:48;19.30;74.70
39427;DHT22;25938;48.470;1.486;2022-10-16T01:01:13;19.30;74.70
39427;DHT22;25938;48.470;1.486;2022-10-16T01:03:39;19.30;74.70
39427;DHT22;25938;48.470;1.486;2022-10-16T01:06:22;19.30;74.70
39427;DHT22;25938;48.470;1.486;2022-10-16T01:14:14;19.30;74.60
39427;DHT22;25938;48.470;1.486;2022-10-16T01:17:17;19.30;74.60
39427;DHT22;25938;48.470;1.486;2022-10-16T01:22:37;19.30;74.60
39427;DHT22;25938;48.470;1.486;2022-10-16T01:25:07;19.30;74.60
39427;DHT22;25938;48.470;1.486;2022-10-16T01:27:36;19.30;74.60
39427;DHT22;25938;48.470;1.486;2022-10-16T01:32:48;19.30;74.50
39427;DHT22;25938;48.470;1.486;2022-10-16T01:38:02;19.30;74.40
39427;DHT22;25938;48.470;1.486;2022-10-16T01:40:30;19.30;74.40
39427;DHT22;25938;48.470;1.486;2022-10-16T01:43:17;19.30;74.40
39427;DHT22;25938;48.470;1.486;2022-10-16T01:45:45;19.30;74.40
39427;DHT22;25938;48.470;1.486;2022-10-16T01:48:13;19.30;74.30
39427;DHT22;25938;48.470;1.486;2022-10-16T01:50:41;19.30;74.30
39427;DHT22;25938;48.470;1.486;2022-10-16T01:53:12;19.30;74.30
39427;DHT22;25938;48.470;1.486;2022-10-16T01:55:41;19.30;74.20
39427;DHT22;25938;48.470;1.486;2022-10-16T01:58:12;19.30;74.20
39427;DHT22;25938;48.470;1.486;2022-10-16T02:00:41;19.30;74.20
39427;DHT22;25938;48.470;1.486;2022-10-16T02:03:07;19.30;74.20
39427;DHT22;25938;48.470;1.486;2022-10-16T02:05:40;19.30;74.20
39427;DHT22;25938;48.470;1.486;2022-10-16T02:08:08;19.30;74.20
39427;DHT22;25938;48.470;1.486;2022-10-16T02:10:35;19.30;74.20
39427;DHT22;25938;48.470;1.486;2022-10-16T02:13:09;19.30;74.20
39427;DHT22;25938;48.470;1.486;2022-10-16T02:15:36;19.30;74.30
39427;DHT22;25938;48.470;1.486;2022-10-16T02:18:03;19.30;74.30
39427;DHT22;25938;48.470;1.486;2022-10-16T02:20:44;19.30;74.30
39427;DHT22;25938;48.470;1.486;2022-10-16T02:23:15;19.30;74.30
39427;DHT22;25938;48.470;1.486;2022-10-16T02:25:44;19.30;74.30
39427;DHT22;25938;48.470;1.486;2022-10-16T02:28:28;19.30;75.00
39427;DHT22;25938;48.470;1.486;2022-10-16T02:30:59;19.30;74.40
39427;DHT22;25938;48.470;1.486;2022-10-16T02:33:27;19.30;74.30
39427;DHT22;25938;48.470;1.486;2022-10-16T02:35:54;19.30;74.30
39427;DHT22;25938;48.470;1.486;2022-10-16T02:38:21;19.30;74.30
39427;DHT22;25938;48.470;1.486;2022-10-16T02:40:48;19.30;74.40
39427;DHT22;25938;48.470;1.486;2022-10-16T02:43:14;19.20;74.30
39427;DHT22;25938;48.470;1.486;2022-10-16T02:45:40;19.30;74.40
39427;DHT22;25938;48.470;1.486;2022-10-16T02:48:06;19.20;74.30
39427;DHT22;25938;48.470;1.486;2022-10-16T02:50:32;19.30;74.40
39427;DHT22;25938;48.470;1.486;2022-10-16T02:52:57;19.20;74.30
39427;DHT22;25938;48.470;1.486;2022-10-16T02:55:23;19.20;74.30
39427;DHT22;25938;48.470;1.486;2022-10-16T02:57:49;19.30;74.40
39427;DHT22;25938;48.470;1.486;2022-10-16T03:00:16;19.20;74.30
39427;DHT22;25938;48.470;1.486;2022-10-16T03:02:42;19.30;74.70
39427;DHT22;25938;48.470;1.486;2022-10-16T03:05:08;19.30;74.40
39427;DHT22;25938;48.470;1.486;2022-10-16T03:07:34;19.20;74.30
39427;DHT22;25938;48.470;1.486;2022-10-16T03:10:00;19.30;74.40
39427;DHT22;25938;48.470;1.486;2022-10-16T03:12:26;19.20;74.30
39427;DHT22;25938;48.470;1.486;2022-10-16T03:14:52;19.20;74.40
39427;DHT22;25938;48.470;1.486;2022-10-16T03:17:18;19.20;74.40
39427;DHT22;25938;48.470;1.486;2022-10-16T03:19:44;19.20;74.40
39427;DHT22;25938;48.470;1.486;2022-10-16T03:22:10;19.20;74.40
39427;DHT22;25938;48.470;1.486;2022-10-16T03:24:35;19.20;74.40
39427;DHT22;25938;48.470;1.486;2022-10-16T03:27:01;19.20;74.40
39427;DHT22;25938;48.470;1.486;2022-10-16T03:29:27;19.20;74.50
39427;DHT22;25938;48.470;1.486;2022-10-16T03:31:55;19.30;74.50
39427;DHT22;25938;48.470;1.486;2022-10-16T03:34:20;19.20;74.50
39427;DHT22;25938;48.470;1.486;2022-10-16T03:36:46;19.20;74.60
39427;DHT22;25938;48.470;1.486;2022-10-16T03:39:11;19.20;74.60
39427;DHT22;25938;48.470;1.486;2022-10-16T03:41:37;19.30;74.70
39427;DHT22;25938;48.470;1.486;2022-10-16T03:44:03;19.20;74.70
39427;DHT22;25938;48.470;1.486;2022-10-16T03:46:28;19.20;74.70
39427;DHT22;25938;48.470;1.486;2022-10-16T03:48:55;19.20;74.70
39427;DHT22;25938;48.470;1.486;2022-10-16T03:51:20;19.20;74.70
39427;DHT22;25938;48.470;1.486;2022-10-16T03:53:46;19.20;74.70
39427;DHT22;25938;48.470;1.486;2022-10-16T03:56:12;19.20;74.70
39427;DHT22;25938;48.470;1.486;2022-10-16T03:58:37;19.20;74.70
39427;DHT22;25938;48.470;1.486;2022-10-16T04:01:03;19.30;74.80
39427;DHT22;25938;48.470;1.486;2022-10-16T04:03:28;19.20;74.80
39427;DHT22;25938;48.470;1.486;2022-10-16T04:05:54;19.20;74.80
39427;DHT22;25938;48.470;1.486;2022-10-16T04:08:20;19.20;74.80
39427;DHT22;25938;48.470;1.486;2022-10-16T04:10:46;19.20;74.80
39427;DHT22;25938;48.470;1.486;2022-10-16T04:13:12;19.20;75.40
39427;DHT22;25938;48.470;1.486;2022-10-16T04:15:38;19.20;74.80
39427;DHT22;25938;48.470;1.486;2022-10-16T04:18:04;19.20;74.80
39427;DHT22;25938;48.470;1.486;2022-10-16T04:20:30;19.30;74.80
39427;DHT22;25938;48.470;1.486;2022-10-16T04:22:56;19.20;74.80
39427;DHT22;25938;48.470;1.486;2022-10-16T04:25:21;19.20;74.80
39427;DHT22;25938;48.470;1.486;2022-10-16T04:27:47;19.30;74.80
39427;DHT22;25938;48.470;1.486;2022-10-16T04:30:13;19.20;74.80
39427;DHT22;25938;48.470;1.486;2022-10-16T04:32:39;19.20;74.80
39427;DHT22;25938;48.470;1.486;2022-10-16T04:35:05;19.20;74.70
39427;DHT22;25938;48.470;1.486;2022-10-16T04:37:31;19.20;74.70
39427;DHT22;25938;48.470;1.486;2022-10-16T04:39:57;19.20;74.70
39427;DHT22;25938;48.470;1.486;2022-10-16T04:42:22;19.20;74.70
39427;DHT22;25938;48.470;1.486;2022-10-16T04:44:48;19.20;74.70
39427;DHT22;25938;48.470;1.486;2022-10-16T04:47:13;19.20;74.70
39427;DHT22;25938;48.470;1.486;2022-10-16T04:49:39;19.20;74.60
39427;DHT22;25938;48.470;1.486;2022-10-16T04:52:05;19.20;74.70
39427;DHT22;25938;48.470;1.486;2022-10-16T04:54:31;19.20;74.60
39427;DHT22;25938;48.470;1.486;2022-10-16T04:56:56;19.20;74.70
39427;DHT22;25938;48.470;1.486;2022-10-16T04:59:22;19.20;74.70
39427;DHT22;25938;48.470;1.486;2022-10-16T05:01:48;19.20;74.70
39427;DHT22;25938;48.470;1.486;2022-10-16T05:04:14;19.20;74.70
39427;DHT22;25938;48.470;1.486;2022-10-16T05:06:41;19.20;74.70
39427;DHT22;25938;48.470;1.486;2022-10-16T05:09:07;19.20;74.70
39427;DHT22;25938;48.470;1.486;2022-10-16T05:11:33;19.20;74.60
39427;DHT22;25938;48.470;1.486;2022-10-16T05:13:59;19.20;74.60
39427;DHT22;25938;48.470;1.486;2022-10-16T05:16:25;19.20;74.60
39427;DHT22;25938;48.470;1.486;2022-10-16T05:18:52;19.20;74.60
39427;DHT22;25938;48.470;1.486;2022-10-16T05:21:18;19.20;74.50
39427;DHT22;25938;48.470;1.486;2022-10-16T05:23:44;19.20;74.50
39427;DHT22;25938;48.470;1.486;2022-10-16T05:26:10;19.20;74.50
39427;DHT22;25938;48.470;1.486;2022-10-16T05:28:35;19.20;74.50
39427;DHT22;25938;48.470;1.486;2022-10-16T05:31:08;19.20;74.50
39427;DHT22;25938;48.470;1.486;2022-10-16T05:33:34;19.20;74.50
39427;DHT22;25938;48.470;1.486;2022-10-16T05:36:05;19.20;74.40
39427;DHT22;25938;48.470;1.486;2022-10-16T05:38:33;19.20;74.50
39427;DHT22;25938;48.470;1.486;2022-10-16T05:40:59;19.20;74.40
39427;DHT22;25938;48.470;1.486;2022-10-16T05:43:26;19.20;74.40
39427;DHT22;25938;48.470;1.486;2022-10-16T05:45:56;19.20;74.40
39427;DHT22;25938;48.470;1.486;2022-10-16T05:48:23;19.20;74.40
39427;DHT22;25938;48.470;1.486;2022-10-16T05:50:48;19.20;74.40
39427;DHT22;25938;48.470;1.486;2022-10-16T05:53:21;19.20;75.00
39427;DHT22;25938;48.470;1.486;2022-10-16T05:55:54;19.10;74.30
39427;DHT22;25938;48.470;1.486;2022-10-16T05:58:20;19.20;74.30
39427;DHT22;25938;48.470;1.486;2022-10-16T06:00:53;19.20;74.20
39427;DHT22;25938;48.470;1.486;2022-10-16T06:03:19;19.10;74.10
39427;DHT22;25938;48.470;1.486;2022-10-16T06:05:44;19.20;74.10
39427;DHT22;25938;48.470;1.486;2022-10-16T06:08:10;19.20;74.00
39427;DHT22;25938;48.470;1.486;2022-10-16T06:10:36;19.20;74.10
39427;DHT22;25938;48.470;1.486;2022-10-16T06:13:01;19.10;74.10
39427;DHT22;25938;48.470;1.486;2022-10-16T06:15:27;19.10;74.20
39427;DHT22;25938;48.470;1.486;2022-10-16T06:17:52;19.10;74.30
39427;DHT22;25938;48.470;1.486;2022-10-16T06:20:18;19.10;74.30
39427;DHT22;25938;48.470;1.486;2022-10-16T06:22:43;19.10;74.40
39427;DHT22;25938;48.470;1.486;2022-10-16T06:25:09;19.10;74.40
39427;DHT22;25938;48.470;1.486;2022-10-16T06:27:35;19.10;74.40
39427;DHT22;25938;48.470;1.486;2022-10-16T06:30:00;19.10;74.40
39427;DHT22;25938;48.470;1.486;2022-10-16T06:32:27;19.20;74.50
39427;DHT22;25938;48.470;1.486;2022-10-16T06:34:52;19.10;74.50
39427;DHT22;25938;48.470;1.486;2022-10-16T06:37:18;19.10;74.40
39427;DHT22;25938;48.470;1.486;2022-10-16T06:39:44;19.10;74.50
39427;DHT22;25938;48.470;1.486;2022-10-16T06:42:09;19.10;74.50
39427;DHT22;25938;48.470;1.486;2022-10-16T06:44:35;19.10;74.50
39427;DHT22;25938;48.470;1.486;2022-10-16T06:47:00;19.10;74.50
39427;DHT22;25938;48.470;1.486;2022-10-16T06:49:26;19.10;74.50
39427;DHT22;25938;48.470;1.486;2022-10-16T06:51:53;19.10;74.50
39427;DHT22;25938;48.470;1.486;2022-10-16T06:54:19;19.10;74.50
39427;DHT22;25938;48.470;1.486;2022-10-16T06:56:45;19.10;74.50
39427;DHT22;25938;48.470;1.486;2022-10-16T06:59:10;19.10;74.60
39427;DHT22;25938;48.470;1.486;2022-10-16T07:01:36;19.10;74.60
39427;DHT22;25938;48.470;1.486;2022-10-16T07:04:02;19.10;74.60
39427;DHT22;25938;48.470;1.486;2022-10-16T07:06:31;19.10;74.60
39427;DHT22;25938;48.470;1.486;2022-10-16T07:08:57;19.10;74.60
39427;DHT22;25938;48.470;1.486;2022-10-16T07:11:23;19.10;74.60
39427;DHT22;25938;48.470;1.486;2022-10-16T07:13:50;19.10;74.70
39427;DHT22;25938;48.470;1.486;2022-10-16T07:16:21;19.10;74.70
39427;DHT22;25938;48.470;1.486;2022-10-16T07:18:47;19.10;74.80
39427;DHT22;25938;48.470;1.486;2022-10-16T07:21:19;19.10;74.80
39427;DHT22;25938;48.470;1.486;2022-10-16T07:23:58;19.10;74.90
39427;DHT22;25938;48.470;1.486;2022-10-16T07:26:25;19.10;74.90
39427;DHT22;25938;48.470;1.486;2022-10-16T07:28:51;19.10;74.90
39427;DHT22;25938;48.470;1.486;2022-10-16T07:31:19;19.10;74.90
39427;DHT22;25938;48.470;1.486;2022-10-16T07:33:46;19.10;74.90
39427;DHT22;25938;48.470;1.486;2022-10-16T07:36:14;19.10;74.90
39427;DHT22;25938;48.470;1.486;2022-10-16T07:38:40;19.10;74.90
39427;DHT22;25938;48.470;1.486;2022-10-16T07:41:10;19.10;74.90
39427;DHT22;25938;48.470;1.486;2022-10-16T07:43:36;19.20;75.00
39427;DHT22;25938;48.470;1.486;2022-10-16T07:46:02;19.10;74.90
39427;DHT22;25938;48.470;1.486;2022-10-16T07:48:30;19.10;74.90
39427;DHT22;25938;48.470;1.486;2022-10-16T07:51:00;19.10;74.90
39427;DHT22;25938;48.470;1.486;2022-10-16T07:53:27;19.10;75.00
39427;DHT22;25938;48.470;1.486;2022-10-16T07:55:56;19.10;75.00
39427;DHT22;25938;48.470;1.486;2022-10-16T07:58:23;19.10;75.10
39427;DHT22;25938;48.470;1.486;2022-10-16T08:00:48;19.20;75.10
39427;DHT22;25938;48.470;1.486;2022-10-16T08:03:14;19.20;75.20
39427;DHT22;25938;48.470;1.486;2022-10-16T08:05:39;19.20;75.20
39427;DHT22;25938;48.470;1.486;2022-10-16T08:08:05;19.10;75.20
39427;DHT22;25938;48.470;1.486;2022-10-16T08:10:31;19.20;75.30
39427;DHT22;25938;48.470;1.486;2022-10-16T08:12:57;19.10;75.30
39427;DHT22;25938;48.470;1.486;2022-10-16T08:15:23;19.10;75.40
39427;DHT22;25938;48.470;1.486;2022-10-16T08:18:00;19.10;75.40
39427;DHT22;25938;48.470;1.486;2022-10-16T08:20:27;19.10;75.60
39427;DHT22;25938;48.470;1.486;2022-10-16T08:22:53;19.10;75.40
39427;DHT22;25938;48.470;1.486;2022-10-16T08:25:20;19.10;75.50
39427;DHT22;25938;48.470;1.486;2022-10-16T08:27:45;19.10;75.50
39427;DHT22;25938;48.470;1.486;2022-10-16T08:30:11;19.10;75.50
39427;DHT22;25938;48.470;1.486;2022-10-16T08:32:37;19.10;75.50
39427;DHT22;25938;48.470;1.486;2022-10-16T08:35:03;19.10;75.50
39427;DHT22;25938;48.470;1.486;2022-10-16T08:37:32;19.10;75.60
39427;DHT22;25938;48.470;1.486;2022-10-16T08:39:58;19.10;75.70
39427;DHT22;25938;48.470;1.486;2022-10-16T08:48:17;19.10;75.70
39427;DHT22;25938;48.470;1.486;2022-10-16T08:50:43;19.10;75.60
39427;DHT22;25938;48.470;1.486;2022-10-16T08:53:24;19.10;75.40
39427;DHT22;25938;48.470;1.486;2022-10-16T08:55:53;19.10;75.50
39427;DHT22;25938;48.470;1.486;2022-10-16T08:58:22;19.10;75.40
39427;DHT22;25938;48.470;1.486;2022-10-16T09:01:12;19.20;75.50
39427;DHT22;25938;48.470;1.486;2022-10-16T09:12:26;19.10;75.10
39427;DHT22;25938;48.470;1.486;2022-10-16T09:18:15;19.10;75.20
39427;DHT22;25938;48.470;1.486;2022-10-16T09:20:59;19.10;75.10
39427;DHT22;25938;48.470;1.486;2022-10-16T09:23:30;19.10;75.10
39427;DHT22;25938;48.470;1.486;2022-10-16T09:25:59;19.10;75.10
39427;DHT22;25938;48.470;1.486;2022-10-16T09:28:25;19.10;75.10
39427;DHT22;25938;48.470;1.486;2022-10-16T09:30:51;19.20;75.30
39427;DHT22;25938;48.470;1.486;2022-10-16T09:33:19;19.10;75.30
39427;DHT22;25938;48.470;1.486;2022-10-16T09:35:50;19.10;75.40
39427;DHT22;25938;48.470;1.486;2022-10-16T09:38:28;19.20;75.50
39427;DHT22;25938;48.470;1.486;2022-10-16T09:40:56;19.20;75.60
39427;DHT22;25938;48.470;1.486;2022-10-16T09:43:46;19.10;75.40
39427;DHT22;25938;48.470;1.486;2022-10-16T09:46:30;19.10;75.50
39427;DHT22;25938;48.470;1.486;2022-10-16T09:49:01;19.20;75.50
39427;DHT22;25938;48.470;1.486;2022-10-16T09:51:32;19.20;75.40
39427;DHT22;25938;48.470;1.486;2022-10-16T09:56:34;19.20;75.40
39427;DHT22;25938;48.470;1.486;2022-10-16T09:59:15;19.20;75.50
39427;DHT22;25938;48.470;1.486;2022-10-16T10:01:42;19.20;75.60
39427;DHT22;25938;48.470;1.486;2022-10-16T10:04:10;19.10;75.40
39427;DHT22;25938;48.470;1.486;2022-10-16T10:06:47;19.20;75.60
39427;DHT22;25938;48.470;1.486;2022-10-16T10:16:50;19.20;75.80
39427;DHT22;25938;48.470;1.486;2022-10-16T10:19:22;19.20;75.90
39427;DHT22;25938;48.470;1.486;2022-10-16T10:21:49;19.20;76.10
39427;DHT22;25938;48.470;1.486;2022-10-16T10:24:17;19.20;76.00
39427;DHT22;25938;48.470;1.486;2022-10-16T10:27:04;19.20;76.20
39427;DHT22;25938;48.470;1.486;2022-10-16T10:29:38;19.20;76.30
39427;DHT22;25938;48.470;1.486;2022-10-16T10:40:15;19.20;76.30
39427;DHT22;25938;48.470;1.486;2022-10-16T10:42:56;19.20;75.90
39427;DHT22;25938;48.470;1.486;2022-10-16T10:45:36;19.20;75.80
39427;DHT22;25938;48.470;1.486;2022-10-16T10:56:30;19.20;76.30
39427;DHT22;25938;48.470;1.486;2022-10-16T11:05:44;19.20;76.40
39427;DHT22;25938;48.470;1.486;2022-10-16T11:08:18;19.20;76.30
39427;DHT22;25938;48.470;1.486;2022-10-16T11:13:34;19.20;76.50
39427;DHT22;25938;48.470;1.486;2022-10-16T11:16:24;19.20;76.50
39427;DHT22;25938;48.470;1.486;2022-10-16T11:21:55;19.20;76.80
39427;DHT22;25938;48.470;1.486;2022-10-16T11:24:49;19.20;76.60
39427;DHT22;25938;48.470;1.486;2022-10-16T11:27:22;19.20;77.00
39427;DHT22;25938;48.470;1.486;2022-10-16T11:30:01;19.20;76.80
39427;DHT22;25938;48.470;1.486;2022-10-16T11:32:52;19.20;77.10
39427;DHT22;25938;48.470;1.486;2022-10-16T11:35:28;19.30;77.40
39427;DHT22;25938;48.470;1.486;2022-10-16T11:37:58;19.20;77.20
39427;DHT22;25938;48.470;1.486;2022-10-16T11:40:31;19.30;77.30
39427;DHT22;25938;48.470;1.486;2022-10-16T11:43:08;19.20;77.50
39427;DHT22;25938;48.470;1.486;2022-10-16T11:45:51;19.30;77.70
39427;DHT22;25938;48.470;1.486;2022-10-16T11:48:30;19.30;77.80
39427;DHT22;25938;48.470;1.486;2022-10-16T11:56:59;19.30;77.60
39427;DHT22;25938;48.470;1.486;2022-10-16T12:07:38;19.30;77.80
39427;DHT22;25938;48.470;1.486;2022-10-16T12:10:23;19.30;77.90
39427;DHT22;25938;48.470;1.486;2022-10-16T12:12:49;19.30;78.10
39427;DHT22;25938;48.470;1.486;2022-10-16T12:15:41;19.30;77.80
39427;DHT22;25938;48.470;1.486;2022-10-16T12:18:19;19.30;78.10
39427;DHT22;25938;48.470;1.486;2022-10-16T12:20:57;19.30;77.90
39427;DHT22;25938;48.470;1.486;2022-10-16T12:26:12;19.30;78.40
39427;DHT22;25938;48.470;1.486;2022-10-16T12:28:38;19.30;78.10
39427;DHT22;25938;48.470;1.486;2022-10-16T12:31:07;19.30;78.30
39427;DHT22;25938;48.470;1.486;2022-10-16T12:33:52;19.30;78.40
39427;DHT22;25938;48.470;1.486;2022-10-16T12:36:30;19.30;78.40
39427;DHT22;25938;48.470;1.486;2022-10-16T12:38:57;19.30;78.40
39427;DHT22;25938;48.470;1.486;2022-10-16T12:41:30;19.30;78.30
39427;DHT22;25938;48.470;1.486;2022-10-16T12:43:56;19.30;78.40
39427;DHT22;25938;48.470;1.486;2022-10-16T12:46:23;19.40;78.30
39427;DHT22;25938;48.470;1.486;2022-10-16T12:48:49;19.30;78.10
39427;DHT22;25938;48.470;1.486;2022-10-16T12:51:32;19.30;78.30
39427;DHT22;25938;48.470;1.486;2022-10-16T12:54:19;19.40;78.70
39427;DHT22;25938;48.470;1.486;2022-10-16T13:00:02;19.30;78.50
39427;DHT22;25938;48.470;1.486;2022-10-16T13:02:50;19.30;78.60
39427;DHT22;25938;48.470;1.486;2022-10-16T13:19:35;19.30;79.70
39427;DHT22;25938;48.470;1.486;2022-10-16T13:30:15;19.40;79.50
39427;DHT22;25938;48.470;1.486;2022-10-16T13:32:46;19.40;79.70
39427;DHT22;25938;48.470;1.486;2022-10-16T13:35:31;19.40;79.80
39427;DHT22;25938;48.470;1.486;2022-10-16T13:38:12;19.40;80.20
39427;DHT22;25938;48.470;1.486;2022-10-16T13:40:50;19.40;79.80
39427;DHT22;25938;48.470;1.486;2022-10-16T13:43:18;19.40;79.70
39427;DHT22;25938;48.470;1.486;2022-10-16T13:45:53;19.40;79.50
39427;DHT22;25938;48.470;1.486;2022-10-16T13:48:19;19.40;80.00
39427;DHT22;25938;48.470;1.486;2022-10-16T13:50:45;19.40;79.90
39427;DHT22;25938;48.470;1.486;2022-10-16T13:53:14;19.40;80.00
39427;DHT22;25938;48.470;1.486;2022-10-16T13:55:40;19.40;80.00
39427;DHT22;25938;48.470;1.486;2022-10-16T13:58:12;19.40;79.70
39427;DHT22;25938;48.470;1.486;2022-10-16T14:00:38;19.40;80.20
39427;DHT22;25938;48.470;1.486;2022-10-16T14:03:11;19.40;80.10
39427;DHT22;25938;48.470;1.486;2022-10-16T14:05:42;19.40;80.30
39427;DHT22;25938;48.470;1.486;2022-10-16T14:08:11;19.50;79.90
39427;DHT22;25938;48.470;1.486;2022-10-16T14:10:38;19.50;79.50
39427;DHT22;25938;48.470;1.486;2022-10-16T14:13:06;19.50;79.90
39427;DHT22;25938;48.470;1.486;2022-10-16T14:15:34;19.40;80.80
39427;DHT22;25938;48.470;1.486;2022-10-16T14:18:01;19.40;80.40
39427;DHT22;25938;48.470;1.486;2022-10-16T14:20:29;19.50;80.30
39427;DHT22;25938;48.470;1.486;2022-10-16T14:25:30;19.40;80.30
39427;DHT22;25938;48.470;1.486;2022-10-16T14:28:20;19.50;80.60
39427;DHT22;25938;48.470;1.486;2022-10-16T14:30:54;19.40;80.90
39427;DHT22;25938;48.470;1.486;2022-10-16T14:33:33;19.50;80.80
39427;DHT22;25938;48.470;1.486;2022-10-16T14:36:12;19.50;80.80
39427;DHT22;25938;48.470;1.486;2022-10-16T14:38:40;19.50;81.10
39427;DHT22;25938;48.470;1.486;2022-10-16T14:41:07;19.50;80.70
39427;DHT22;25938;48.470;1.486;2022-10-16T14:46:01;19.50;80.60
39427;DHT22;25938;48.470;1.486;2022-10-16T14:48:28;19.50;80.30
39427;DHT22;25938;48.470;1.486;2022-10-16T14:50:54;19.50;80.10
39427;DHT22;25938;48.470;1.486;2022-10-16T14:53:20;19.50;80.40
39427;DHT22;25938;48.470;1.486;2022-10-16T14:55:46;19.50;80.70
39427;DHT22;25938;48.470;1.486;2022-10-16T14:58:22;19.50;80.80
39427;DHT22;25938;48.470;1.486;2022-10-16T15:00:49;19.50;80.80
39427;DHT22;25938;48.470;1.486;2022-10-16T15:03:15;19.50;80.40
39427;DHT22;25938;48.470;1.486;2022-10-16T15:05:40;19.50;80.60
39427;DHT22;25938;48.470;1.486;2022-10-16T15:08:06;19.50;80.70
39427;DHT22;25938;48.470;1.486;2022-10-16T15:10:38;19.50;80.70
39427;DHT22;25938;48.470;1.486;2022-10-16T15:13:04;19.50;80.90
39427;DHT22;25938;48.470;1.486;2022-10-16T15:17:58;19.50;81.30
39427;DHT22;25938;48.470;1.486;2022-10-16T15:20:34;19.50;81.30
39427;DHT22;25938;48.470;1.486;2022-10-16T15:23:02;19.50;81.40
39427;DHT22;25938;48.470;1.486;2022-10-16T15:25:42;19.50;81.20
39427;DHT22;25938;48.470;1.486;2022-10-16T15:28:10;19.50;81.40
39427;DHT22;25938;48.470;1.486;2022-10-16T15:30:36;19.60;81.00
39427;DHT22;25938;48.470;1.486;2022-10-16T15:33:03;19.50;80.80
39427;DHT22;25938;48.470;1.486;2022-10-16T15:35:29;19.50;80.50
39427;DHT22;25938;48.470;1.486;2022-10-16T15:37:54;19.60;80.90
39427;DHT22;25938;48.470;1.486;2022-10-16T15:40:21;19.50;81.10
39427;DHT22;25938;48.470;1.486;2022-10-16T15:42:47;19.60;81.40
39427;DHT22;25938;48.470;1.486;2022-10-16T15:45:13;19.50;81.50
39427;DHT22;25938;48.470;1.486;2022-10-16T15:47:40;19.60;81.80
39427;DHT22;25938;48.470;1.486;2022-10-16T15:50:06;19.50;81.90
39427;DHT22;25938;48.470;1.486;2022-10-16T15:52:33;19.60;82.10
39427;DHT22;25938;48.470;1.486;2022-10-16T15:54:58;19.60;82.20
39427;DHT22;25938;48.470;1.486;2022-10-16T15:57:24;19.60;82.00
39427;DHT22;25938;48.470;1.486;2022-10-16T15:59:50;19.60;82.00
39427;DHT22;25938;48.470;1.486;2022-10-16T16:02:16;19.60;82.00
39427;DHT22;25938;48.470;1.486;2022-10-16T16:04:41;19.60;82.10
39427;DHT22;25938;48.470;1.486;2022-10-16T16:07:09;19.60;82.30
39427;DHT22;25938;48.470;1.486;2022-10-16T16:09:34;19.60;82.30
39427;DHT22;25938;48.470;1.486;2022-10-16T16:12:00;19.60;82.40
39427;DHT22;25938;48.470;1.486;2022-10-16T16:14:27;19.60;82.50
39427;DHT22;25938;48.470;1.486;2022-10-16T16:16:56;19.60;82.70
39427;DHT22;25938;48.470;1.486;2022-10-16T16:19:22;19.60;82.80
39427;DHT22;25938;48.470;1.486;2022-10-16T16:21:48;19.60;82.90
39427;DHT22;25938;48.470;1.486;2022-10-16T16:24:14;19.60;83.00
39427;DHT22;25938;48.470;1.486;2022-10-16T16:26:40;19.60;82.90
39427;DHT22;25938;48.470;1.486;2022-10-16T16:29:11;19.60;83.00
39427;DHT22;25938;48.470;1.486;2022-10-16T16:31:39;19.60;83.00
39427;DHT22;25938;48.470;1.486;2022-10-16T16:34:04;19.60;83.00
39427;DHT22;25938;48.470;1.486;2022-10-16T16:36:30;19.70;83.00
39427;DHT22;25938;48.470;1.486;2022-10-16T16:38:56;19.60;83.00
39427;DHT22;25938;48.470;1.486;2022-10-16T16:41:29;19.60;83.10
39427;DHT22;25938;48.470;1.486;2022-10-16T16:43:55;19.60;83.30
39427;DHT22;25938;48.470;1.486;2022-10-16T16:46:26;19.60;83.10
39427;DHT22;25938;48.470;1.486;2022-10-16T16:48:52;19.60;83.10
39427;DHT22;25938;48.470;1.486;2022-10-16T16:51:21;19.60;83.10
39427;DHT22;25938;48.470;1.486;2022-10-16T16:53:49;19.70;83.20
39427;DHT22;25938;48.470;1.486;2022-10-16T16:56:15;19.70;83.20
39427;DHT22;25938;48.470;1.486;2022-10-16T16:58:41;19.70;83.10
39427;DHT22;25938;48.470;1.486;2022-10-16T17:01:09;19.60;83.10
39427;DHT22;25938;48.470;1.486;2022-10-16T17:03:36;19.70;83.20
39427;DHT22;25938;48.470;1.486;2022-10-16T17:06:06;19.70;83.20
39427;DHT22;25938;48.470;1.486;2022-10-16T17:08:35;19.70;83.20
39427;DHT22;25938;48.470;1.486;2022-10-16T17:11:02;19.70;83.10
39427;DHT22;25938;48.470;1.486;2022-10-16T17:13:30;19.70;83.00
39427;DHT22;25938;48.470;1.486;2022-10-16T17:15:56;19.70;83.00
39427;DHT22;25938;48.470;1.486;2022-10-16T17:18:23;19.70;82.80
39427;DHT22;25938;48.470;1.486;2022-10-16T17:20:49;19.70;82.80
39427;DHT22;25938;48.470;1.486;2022-10-16T17:23:17;19.70;82.70
39427;DHT22;25938;48.470;1.486;2022-10-16T17:25:43;19.70;82.60
39427;DHT22;25938;48.470;1.486;2022-10-16T17:28:10;19.70;82.50
39427;DHT22;25938;48.470;1.486;2022-10-16T17:30:40;19.70;82.40
39427;DHT22;25938;48.470;1.486;2022-10-16T17:33:06;19.70;82.40
39427;DHT22;25938;48.470;1.486;2022-10-16T17:35:45;19.70;82.30
39427;DHT22;25938;48.470;1.486;2022-10-16T17:38:12;19.70;82.40
39427;DHT22;25938;48.470;1.486;2022-10-16T17:40:38;19.70;82.20
39427;DHT22;25938;48.470;1.486;2022-10-16T17:43:05;19.70;82.00
39427;DHT22;25938;48.470;1.486;2022-10-16T17:45:31;19.70;82.00
39427;DHT22;25938;48.470;1.486;2022-10-16T17:48:00;19.70;82.00